Time;durP1;ratioP1;P1;durP2;ratioP2;P2;SDS_P1;SDS_P2;PMS_P1;PMS_P2;Temp;Humidity;BMP_temperature;BMP_pressure;BME280_temperature;BME280_humidity;BME280_pressure;Samples;Min_cycle;Max_cycle;Signal;HPM_P1;HPM_P2
2024/01/21 00:00:42;;;;;;;4.78;2.25;;;;;;;;;;5068055;28;20080;-77
2024/01/21 00:03:08;;;;;;;1.60;1.50;;;;;;;;;;5063427;28;20133;-77
2024/01/21 00:05:33;;;;;;;2.25;1.95;;;;;;;;;;5070632;28;20048;-77
2024/01/21 00:07:59;;;;;;;2.83;2.20;;;;;;;;;;5065317;28;20033;-77
2024/01/21 00:10:24;;;;;;;2.45;1.95;;;;;;;;;;5062868;28;20021;-77
2024/01/21 00:12:49;;;;;;;2.78;1.92;;;;;;;;;;5056154;28;20025;-77
2024/01/21 00:15:15;;;;;;;5.38;2.97;;;;;;;;;;5067059;28;20025;-78
2024/01/21 00:17:40;;;;;;;1.55;1.45;;;;;;;;;;5060562;28;20069;-78
2024/01/21 00:20:06;;;;;;;1.60;1.50;;;;;;;;;;5057843;28;20044;-78
2024/01/21 00:22:31;;;;;;;2.05;1.75;;;;;;;;;;5060641;28;20035;-77
2024/01/21 00:24:56;;;;;;;3.47;1.77;;;;;;;;;;5057876;28;20482;-77
2024/01/21 00:27:22;;;;;;;2.20;2.00;;;;;;;;;;5065288;28;20037;-77
2024/01/21 00:29:47;;;;;;;2.00;1.83;;;;;;;;;;5074508;28;20063;-78
2024/01/21 00:32:12;;;;;;;3.50;1.60;;;;;;;;;;5063315;28;20048;-77
2024/01/21 00:34:38;;;;;;;5.97;3.13;;;;;;;;;;5067480;28;20505;-77
2024/01/21 00:37:03;;;;;;;10.15;2.50;;;;;;;;;;5076812;28;20353;-77
2024/01/21 00:39:28;;;;;;;4.55;2.38;;;;;;;;;;5067214;28;20085;-79
2024/01/21 00:41:55;;;;;;;3.80;2.30;;;;;;;;;;5066777;28;20048;-78
2024/01/21 00:44:20;;;;;;;10.95;5.90;;;;;;;;;;5070230;28;20109;-78
2024/01/21 00:46:47;;;;;;;7.43;3.10;;;;;;;;;;5067201;28;20061;-77
2024/01/21 00:49:13;;;;;;;3.03;2.70;;;;;;;;;;5062835;28;20044;-77
2024/01/21 00:51:38;;;;;;;3.47;2.90;;;;;;;;;;5058576;28;20081;-79
2024/01/21 00:54:03;;;;;;;3.20;2.45;;;;;;;;;;5075211;28;20036;-78
2024/01/21 00:56:28;;;;;;;3.25;1.88;;;;;;;;;;5066828;28;20041;-78
2024/01/21 00:58:54;;;;;;;3.03;2.28;;;;;;;;;;5062077;28;20041;-78
2024/01/21 01:01:19;;;;;;;16.55;2.17;;;;;;;;;;5075254;28;20108;-77
2024/01/21 01:03:44;;;;;;;2.35;1.70;;;;;;;;;;5060149;28;20045;-78
2024/01/21 01:06:10;;;;;;;3.05;2.75;;;;;;;;;;5051337;28;20039;-77
2024/01/21 01:08:35;;;;;;;2.55;1.77;;;;;;;;;;5067035;28;20044;-78
2024/01/21 01:11:00;;;;;;;1.88;1.60;;;;;;;;;;5060158;28;20197;-79
2024/01/21 01:13:26;;;;;;;2.75;2.30;;;;;;;;;;5063382;28;20025;-78
2024/01/21 01:15:51;;;;;;;2.22;2.10;;;;;;;;;;5072606;28;20028;-78
2024/01/21 01:18:16;;;;;;;3.53;1.98;;;;;;;;;;5078346;28;20025;-78
2024/01/21 01:20:42;;;;;;;2.35;2.05;;;;;;;;;;5059619;28;20105;-77
2024/01/21 01:23:07;;;;;;;4.10;2.85;;;;;;;;;;5060965;28;20040;-77
2024/01/21 01:25:32;;;;;;;1.90;1.80;;;;;;;;;;5063745;28;20032;-78
2024/01/21 01:27:58;;;;;;;8.10;4.72;;;;;;;;;;5064748;28;20029;-78
2024/01/21 01:30:23;;;;;;;5.13;3.88;;;;;;;;;;5075459;28;20045;-78
2024/01/21 01:32:49;;;;;;;3.15;2.90;;;;;;;;;;5074596;28;20517;-78
2024/01/21 01:35:14;;;;;;;3.65;2.85;;;;;;;;;;5076913;28;20033;-77
2024/01/21 01:37:39;;;;;;;2.35;2.15;;;;;;;;;;5065768;28;21741;-77
2024/01/21 01:40:06;;;;;;;59.05;3.88;;;;;;;;;;5059699;28;20024;-77
2024/01/21 01:42:32;;;;;;;3.10;2.83;;;;;;;;;;5058438;28;20055;-77
2024/01/21 01:44:57;;;;;;;4.80;3.15;;;;;;;;;;5071582;28;20033;-78
2024/01/21 01:47:23;;;;;;;4.22;3.08;;;;;;;;;;5068388;28;20056;-77
2024/01/21 01:49:48;;;;;;;3.42;2.90;;;;;;;;;;5062644;28;20033;-78
2024/01/21 01:52:15;;;;;;;3.28;2.00;;;;;;;;;;5065403;28;20091;-78
2024/01/21 01:54:44;;;;;;;4.47;2.75;;;;;;;;;;5078279;28;20548;-79
2024/01/21 01:57:10;;;;;;;5.90;3.47;;;;;;;;;;5076742;28;20041;-77
2024/01/21 01:59:36;;;;;;;7.25;4.72;;;;;;;;;;5070806;28;20047;-78
2024/01/21 02:02:02;;;;;;;5.28;3.55;;;;;;;;;;5062149;28;20044;-78
2024/01/21 02:04:28;;;;;;;5.65;4.18;;;;;;;;;;5081911;28;20021;-79
2024/01/21 02:06:53;;;;;;;11.60;6.30;;;;;;;;;;5079109;28;20092;-78
2024/01/21 02:09:18;;;;;;;3.75;3.05;;;;;;;;;;5046526;28;20037;-78
2024/01/21 02:11:44;;;;;;;8.90;5.80;;;;;;;;;;5058685;28;20037;-78
2024/01/21 02:14:10;;;;;;;11.63;5.30;;;;;;;;;;5069752;28;20041;-78
2024/01/21 02:16:35;;;;;;;2.97;2.75;;;;;;;;;;5075905;28;20044;-77
2024/01/21 02:19:04;;;;;;;28.75;3.67;;;;;;;;;;5076304;28;20455;-77
2024/01/21 02:21:29;;;;;;;5.95;3.15;;;;;;;;;;5059639;28;20040;-77
2024/01/21 02:23:54;;;;;;;4.25;2.92;;;;;;;;;;5071883;28;20048;-77
2024/01/21 02:26:19;;;;;;;11.70;3.28;;;;;;;;;;5074637;28;20143;-77
2024/01/21 02:28:45;;;;;;;3.38;2.17;;;;;;;;;;5077557;28;20456;-78
2024/01/21 02:31:10;;;;;;;2.42;2.22;;;;;;;;;;5077960;28;20400;-78
2024/01/21 02:33:36;;;;;;;5.40;3.63;;;;;;;;;;5073881;28;20408;-77
2024/01/21 02:36:01;;;;;;;12.95;2.58;;;;;;;;;;5074285;28;20065;-78
2024/01/21 02:38:26;;;;;;;5.00;2.55;;;;;;;;;;5080152;28;20033;-78
2024/01/21 02:40:51;;;;;;;2.78;2.58;;;;;;;;;;5062196;28;20037;-79
2024/01/21 02:43:17;;;;;;;2.22;2.05;;;;;;;;;;5058100;28;20063;-77
2024/01/21 02:45:42;;;;;;;0.98;0.98;;;;;;;;;;5059901;28;20075;-78
2024/01/21 02:48:07;;;;;;;2.28;2.13;;;;;;;;;;5061179;28;20107;-77
2024/01/21 02:50:33;;;;;;;2.95;2.63;;;;;;;;;;5058745;28;20040;-77
2024/01/21 02:52:58;;;;;;;3.58;2.42;;;;;;;;;;5061709;28;20025;-78
2024/01/21 02:55:23;;;;;;;14.55;2.35;;;;;;;;;;5058208;28;20382;-79
2024/01/21 02:57:48;;;;;;;7.10;3.33;;;;;;;;;;5068246;28;20029;-77
2024/01/21 03:00:14;;;;;;;8.23;4.10;;;;;;;;;;5059630;28;20133;-78
2024/01/21 03:02:39;;;;;;;4.75;2.38;;;;;;;;;;5065580;28;20040;-77
2024/01/21 03:05:05;;;;;;;4.32;2.78;;;;;;;;;;5054663;28;20052;-77
2024/01/21 03:07:30;;;;;;;67.78;5.20;;;;;;;;;;5052599;28;20037;-77
2024/01/21 03:09:56;;;;;;;2.63;2.42;;;;;;;;;;5055299;28;20120;-78
2024/01/21 03:12:21;;;;;;;2.08;1.75;;;;;;;;;;5054877;28;20048;-75
2024/01/21 03:14:46;;;;;;;5.32;2.75;;;;;;;;;;5053120;28;20464;-76
2024/01/21 03:17:12;;;;;;;12.57;3.35;;;;;;;;;;5053057;28;20037;-77
2024/01/21 03:19:37;;;;;;;4.95;3.25;;;;;;;;;;5055925;28;20029;-77
2024/01/21 03:22:02;;;;;;;4.70;2.30;;;;;;;;;;5054757;28;20040;-76
2024/01/21 03:24:28;;;;;;;4.25;2.72;;;;;;;;;;5050234;28;20067;-77
2024/01/21 03:26:54;;;;;;;2.13;1.98;;;;;;;;;;5055035;28;20062;-77
2024/01/21 03:29:20;;;;;;;2.88;2.50;;;;;;;;;;5056510;28;20597;-75
2024/01/21 03:31:45;;;;;;;12.02;6.13;;;;;;;;;;5059382;28;20048;-77
2024/01/21 03:34:11;;;;;;;7.72;2.13;;;;;;;;;;5059660;28;20083;-77
2024/01/21 03:36:36;;;;;;;2.47;2.28;;;;;;;;;;5062807;28;20063;-78
2024/01/21 03:39:02;;;;;;;5.05;3.50;;;;;;;;;;5057736;28;20033;-78
2024/01/21 03:41:27;;;;;;;3.22;2.47;;;;;;;;;;4954328;28;20066;-77
2024/01/21 03:43:52;;;;;;;34.72;3.92;;;;;;;;;;5031198;28;20064;-76
2024/01/21 03:46:18;;;;;;;1.98;1.55;;;;;;;;;;5053848;28;20582;-77
2024/01/21 03:48:43;;;;;;;1.83;1.73;;;;;;;;;;5053046;28;20056;-77
2024/01/21 03:51:10;;;;;;;2.72;1.98;;;;;;;;;;5072157;28;20082;-76
2024/01/21 03:53:36;;;;;;;4.75;2.50;;;;;;;;;;5056431;28;20561;-77
2024/01/21 03:56:02;;;;;;;3.45;2.42;;;;;;;;;;5060990;28;20032;-77
2024/01/21 03:58:27;;;;;;;3.75;2.92;;;;;;;;;;5056590;28;20058;-77
2024/01/21 04:00:53;;;;;;;3.15;2.42;;;;;;;;;;5057226;28;20041;-77
2024/01/21 04:03:18;;;;;;;1.77;1.65;;;;;;;;;;5058355;28;20041;-77
2024/01/21 04:05:43;;;;;;;1.63;1.38;;;;;;;;;;5064288;28;20041;-77
2024/01/21 04:08:08;;;;;;;2.08;1.88;;;;;;;;;;5068730;28;20119;-77
2024/01/21 04:10:34;;;;;;;1.42;1.33;;;;;;;;;;5076757;28;20082;-77
2024/01/21 04:12:59;;;;;;;1.45;1.35;;;;;;;;;;5067686;28;20092;-76
2024/01/21 04:15:24;;;;;;;3.22;2.17;;;;;;;;;;5072415;28;20028;-77
2024/01/21 04:17:49;;;;;;;3.53;2.78;;;;;;;;;;5059433;28;20060;-77
2024/01/21 04:20:15;;;;;;;1.50;1.38;;;;;;;;;;5062363;28;20764;-77
2024/01/21 04:22:40;;;;;;;6.03;2.08;;;;;;;;;;5061666;28;20036;-77
2024/01/21 04:25:06;;;;;;;9.95;1.77;;;;;;;;;;5061781;28;20040;-76
2024/01/21 04:27:31;;;;;;;1.83;1.40;;;;;;;;;;5068552;28;20428;-77
2024/01/21 04:29:57;;;;;;;5.57;2.03;;;;;;;;;;5059806;28;20525;-77
2024/01/21 04:32:22;;;;;;;1.45;1.35;;;;;;;;;;5054752;28;20078;-77
2024/01/21 04:34:47;;;;;;;1.35;1.25;;;;;;;;;;5061436;28;20382;-78
2024/01/21 04:37:13;;;;;;;4.25;2.17;;;;;;;;;;5057129;28;20555;-77
2024/01/21 04:39:38;;;;;;;1.88;1.65;;;;;;;;;;5052190;28;20319;-76
2024/01/21 04:42:04;;;;;;;1.90;1.67;;;;;;;;;;5057834;28;20040;-77
2024/01/21 04:44:29;;;;;;;3.05;1.40;;;;;;;;;;5055487;28;20044;-77
2024/01/21 04:46:54;;;;;;;2.75;2.13;;;;;;;;;;5057520;28;20039;-77
2024/01/21 04:49:19;;;;;;;1.52;1.33;;;;;;;;;;5054643;28;20547;-77
2024/01/21 04:51:45;;;;;;;2.67;2.10;;;;;;;;;;5060232;28;20021;-77
2024/01/21 04:54:10;;;;;;;1.80;1.65;;;;;;;;;;5059194;28;20064;-77
2024/01/21 04:56:36;;;;;;;3.63;2.38;;;;;;;;;;5061558;28;20032;-77
2024/01/21 04:59:02;;;;;;;2.35;1.92;;;;;;;;;;5055315;28;20025;-77
2024/01/21 05:01:27;;;;;;;1.48;1.25;;;;;;;;;;5067880;28;20044;-76
2024/01/21 05:03:52;;;;;;;2.63;1.27;;;;;;;;;;5058562;28;20032;-78
2024/01/21 05:06:18;;;;;;;1.95;1.30;;;;;;;;;;5050682;28;20386;-77
2024/01/21 05:08:43;;;;;;;1.40;1.30;;;;;;;;;;5052828;28;20037;-77
2024/01/21 05:11:09;;;;;;;0.88;0.88;;;;;;;;;;5032227;28;20033;-77
2024/01/21 05:13:34;;;;;;;0.77;0.77;;;;;;;;;;5060255;28;20116;-77
2024/01/21 05:16:00;;;;;;;1.17;0.90;;;;;;;;;;5052333;28;20083;-76
2024/01/21 05:18:25;;;;;;;3.08;2.03;;;;;;;;;;5061506;28;20029;-77
2024/01/21 05:20:50;;;;;;;4.25;1.92;;;;;;;;;;4936158;28;20047;-77
2024/01/21 05:23:15;;;;;;;2.65;1.83;;;;;;;;;;5056560;28;21459;-77
2024/01/21 05:25:41;;;;;;;2.47;1.55;;;;;;;;;;5053638;28;20501;-77
2024/01/21 05:28:06;;;;;;;3.95;1.85;;;;;;;;;;5058045;28;20493;-77
2024/01/21 05:30:32;;;;;;;2.58;1.65;;;;;;;;;;5069415;28;20033;-77
2024/01/21 05:32:57;;;;;;;1.58;1.13;;;;;;;;;;5049974;28;20037;-76
2024/01/21 05:35:22;;;;;;;2.67;1.80;;;;;;;;;;5062100;28;20037;-77
2024/01/21 05:37:48;;;;;;;2.03;1.55;;;;;;;;;;5057094;28;20082;-77
2024/01/21 05:40:14;;;;;;;1.42;1.33;;;;;;;;;;5061170;28;20503;-78
2024/01/21 05:42:39;;;;;;;0.77;0.77;;;;;;;;;;5063414;28;20029;-75
2024/01/21 05:45:05;;;;;;;1.95;1.73;;;;;;;;;;5065186;28;20033;-77
2024/01/21 05:47:30;;;;;;;1.40;1.30;;;;;;;;;;5068182;28;20036;-77
2024/01/21 05:49:56;;;;;;;1.90;1.55;;;;;;;;;;5060819;28;20355;-77
2024/01/21 05:52:21;;;;;;;2.17;1.48;;;;;;;;;;5060979;28;20021;-77
2024/01/21 05:54:46;;;;;;;0.70;0.70;;;;;;;;;;5064388;28;20032;-77
2024/01/21 05:57:12;;;;;;;0.90;0.88;;;;;;;;;;5044350;28;20045;-78
2024/01/21 05:59:37;;;;;;;1.85;1.30;;;;;;;;;;5048915;28;20524;-78
2024/01/21 06:02:04;;;;;;;3.67;1.90;;;;;;;;;;5058377;28;20120;-76
2024/01/21 06:04:30;;;;;;;1.40;1.02;;;;;;;;;;5069806;28;20060;-77
2024/01/21 06:06:55;;;;;;;1.95;1.17;;;;;;;;;;5074800;28;20078;-77
2024/01/21 06:09:20;;;;;;;1.65;1.15;;;;;;;;;;5063169;28;20514;-75
2024/01/21 06:11:46;;;;;;;1.67;1.25;;;;;;;;;;5063518;28;20120;-78
2024/01/21 06:14:11;;;;;;;2.70;0.70;;;;;;;;;;5064167;28;20029;-78
2024/01/21 06:16:37;;;;;;;0.65;0.65;;;;;;;;;;5068684;28;20037;-77
2024/01/21 06:19:03;;;;;;;1.00;1.00;;;;;;;;;;5063502;28;20036;-77
2024/01/21 06:21:28;;;;;;;0.60;0.60;;;;;;;;;;5069098;28;20044;-77
2024/01/21 06:23:54;;;;;;;1.08;0.98;;;;;;;;;;5069450;28;20081;-77
2024/01/21 06:26:20;;;;;;;1.00;0.90;;;;;;;;;;5063058;28;21944;-77
2024/01/21 06:28:52;;;;;;;0.50;0.50;;;;;;;;;;5070419;28;20118;-78
2024/01/21 06:31:18;;;;;;;1.23;1.02;;;;;;;;;;5063462;28;20033;-77
2024/01/21 06:33:44;;;;;;;1.17;0.85;;;;;;;;;;5056186;28;20048;-77
2024/01/21 06:36:09;;;;;;;1.08;0.80;;;;;;;;;;5062070;28;20039;-76
2024/01/21 06:38:35;;;;;;;1.02;1.02;;;;;;;;;;5065698;28;20049;-77
2024/01/21 06:41:00;;;;;;;1.17;0.88;;;;;;;;;;5063691;28;20089;-76
2024/01/21 06:43:26;;;;;;;2.00;1.50;;;;;;;;;;5056140;28;20471;-76
2024/01/21 06:45:51;;;;;;;1.73;1.63;;;;;;;;;;5065348;28;20033;-76
2024/01/21 06:48:17;;;;;;;1.50;0.95;;;;;;;;;;5062934;28;20047;-75
2024/01/21 06:50:43;;;;;;;0.40;0.40;;;;;;;;;;5061564;28;20386;-77
2024/01/21 06:53:08;;;;;;;0.80;0.80;;;;;;;;;;5061597;28;20040;-77
2024/01/21 06:55:33;;;;;;;2.13;1.30;;;;;;;;;;5059978;28;20036;-76
2024/01/21 06:57:59;;;;;;;2.95;1.55;;;;;;;;;;5060565;28;20068;-77
2024/01/21 07:00:24;;;;;;;1.40;1.30;;;;;;;;;;5058374;28;20126;-77
2024/01/21 07:02:49;;;;;;;1.17;1.05;;;;;;;;;;5053550;28;20492;-77
2024/01/21 07:05:14;;;;;;;0.80;0.80;;;;;;;;;;5061101;28;20044;-77
2024/01/21 07:07:40;;;;;;;0.50;0.50;;;;;;;;;;5059145;28;20033;-77
2024/01/21 07:10:06;;;;;;;1.20;1.10;;;;;;;;;;5055735;28;20033;-77
2024/01/21 07:12:31;;;;;;;4.82;2.13;;;;;;;;;;5060359;28;20056;-76
2024/01/21 07:14:56;;;;;;;61.50;3.83;;;;;;;;;;5056846;28;20035;-77
2024/01/21 07:17:22;;;;;;;0.98;0.95;;;;;;;;;;5052955;28;20071;-77
2024/01/21 07:19:52;;;;;;;5.63;1.92;;;;;;;;;;5052702;28;20037;-77
2024/01/21 07:22:18;;;;;;;3.55;2.65;;;;;;;;;;5040792;28;20033;-77
2024/01/21 07:24:43;;;;;;;3.25;2.05;;;;;;;;;;5057485;28;20169;-77
2024/01/21 07:27:09;;;;;;;2.72;2.50;;;;;;;;;;5056635;28;20025;-76
2024/01/21 07:29:34;;;;;;;4.22;3.03;;;;;;;;;;5056065;28;20072;-77
2024/01/21 07:31:59;;;;;;;4.70;2.72;;;;;;;;;;5052862;28;20060;-78
2024/01/21 07:34:24;;;;;;;11.30;2.92;;;;;;;;;;5050330;28;20425;-76
2024/01/21 07:36:50;;;;;;;1.85;1.75;;;;;;;;;;5057666;28;20032;-76
2024/01/21 07:39:15;;;;;;;1.75;1.65;;;;;;;;;;5057705;28;20031;-77
2024/01/21 07:41:41;;;;;;;38.22;3.67;;;;;;;;;;5067254;28;20033;-78
2024/01/21 07:44:06;;;;;;;12.85;2.10;;;;;;;;;;5055744;28;20386;-77
2024/01/21 07:46:31;;;;;;;2.20;1.88;;;;;;;;;;5055631;28;20048;-77
2024/01/21 07:48:57;;;;;;;1.95;1.15;;;;;;;;;;5053533;28;20544;-76
2024/01/21 07:51:22;;;;;;;4.70;2.03;;;;;;;;;;5058154;28;20222;-76
2024/01/21 07:53:47;;;;;;;1.55;1.45;;;;;;;;;;5055245;28;20053;-77
2024/01/21 07:56:13;;;;;;;4.25;2.17;;;;;;;;;;5052277;28;20455;-78
2024/01/21 07:58:38;;;;;;;35.92;3.22;;;;;;;;;;5052881;28;20048;-77
2024/01/21 08:01:09;;;;;;;3.67;2.05;;;;;;;;;;5050660;28;20159;-76
2024/01/21 08:03:35;;;;;;;9.00;2.13;;;;;;;;;;5053662;28;20045;-77
2024/01/21 08:06:00;;;;;;;0.80;0.80;;;;;;;;;;5054334;28;20578;-77
2024/01/21 08:08:25;;;;;;;1.55;1.23;;;;;;;;;;5050213;28;20037;-77
2024/01/21 08:10:51;;;;;;;2.08;1.55;;;;;;;;;;5062865;28;20041;-77
2024/01/21 08:13:16;;;;;;;27.60;2.42;;;;;;;;;;5040200;28;20071;-77
2024/01/21 08:15:42;;;;;;;5.93;2.95;;;;;;;;;;5047975;28;20044;-77
2024/01/21 08:18:07;;;;;;;4.05;2.35;;;;;;;;;;5050895;28;20067;-77
2024/01/21 08:20:33;;;;;;;1.63;1.00;;;;;;;;;;4980911;28;20045;-75
2024/01/21 08:23:00;;;;;;;2.08;1.15;;;;;;;;;;5064154;28;20033;-77
2024/01/21 08:25:26;;;;;;;1.40;1.23;;;;;;;;;;5046113;28;20033;-77
2024/01/21 08:27:51;;;;;;;3.63;1.40;;;;;;;;;;5063307;28;20523;-77
2024/01/21 08:30:17;;;;;;;6.95;3.03;;;;;;;;;;5068594;28;20054;-79
2024/01/21 08:32:42;;;;;;;13.52;3.72;;;;;;;;;;5061095;28;20044;-77
2024/01/21 08:35:08;;;;;;;3.40;1.73;;;;;;;;;;5061620;28;20409;-77
2024/01/21 08:37:33;;;;;;;2.95;1.30;;;;;;;;;;5051544;28;20124;-78
2024/01/21 08:39:58;;;;;;;1.25;1.02;;;;;;;;;;5053375;28;20190;-78
2024/01/21 08:42:24;;;;;;;1.00;0.75;;;;;;;;;;5057801;28;20040;-76
2024/01/21 08:44:50;;;;;;;1.30;1.20;;;;;;;;;;5059022;28;20037;-77
2024/01/21 08:47:18;;;;;;;0.88;0.88;;;;;;;;;;5054478;28;20029;-77
2024/01/21 08:49:44;;;;;;;1.45;1.35;;;;;;;;;;5055596;28;20067;-78
2024/01/21 08:52:09;;;;;;;6.88;2.55;;;;;;;;;;5064431;28;20494;-77
2024/01/21 08:54:34;;;;;;;2.08;1.65;;;;;;;;;;5049027;28;20057;-77
2024/01/21 08:57:00;;;;;;;2.13;1.80;;;;;;;;;;5053866;28;20040;-76
2024/01/21 08:59:25;;;;;;;6.57;1.80;;;;;;;;;;5060957;28;20214;-77
2024/01/21 09:01:50;;;;;;;4.90;1.55;;;;;;;;;;5060847;28;20056;-77
2024/01/21 09:04:15;;;;;;;2.80;1.40;;;;;;;;;;5052547;28;20108;-77
2024/01/21 09:06:41;;;;;;;1.77;1.20;;;;;;;;;;5053645;28;20087;-78
2024/01/21 09:09:13;;;;;;;1.40;1.30;;;;;;;;;;5056025;28;20032;-78
2024/01/21 09:11:39;;;;;;;0.93;0.93;;;;;;;;;;4995252;28;20037;-79
2024/01/21 09:14:05;;;;;;;1.10;0.90;;;;;;;;;;5061661;28;20044;-80
2024/01/21 09:16:31;;;;;;;1.75;1.05;;;;;;;;;;5035955;28;20049;-79
2024/01/21 09:18:56;;;;;;;1.17;1.10;;;;;;;;;;5066381;28;20037;-79
2024/01/21 09:21:21;;;;;;;1.60;1.45;;;;;;;;;;5067450;28;20267;-79
2024/01/21 09:23:47;;;;;;;1.45;1.33;;;;;;;;;;5063410;28;20469;-79
2024/01/21 09:26:12;;;;;;;1.40;1.30;;;;;;;;;;5064599;28;20072;-77
2024/01/21 09:28:38;;;;;;;1.40;1.13;;;;;;;;;;5042772;28;20048;-80
2024/01/21 09:31:03;;;;;;;1.73;1.52;;;;;;;;;;5055253;28;20045;-77
2024/01/21 09:33:29;;;;;;;8.32;2.17;;;;;;;;;;5073440;28;20037;-81
2024/01/21 09:35:54;;;;;;;5.68;1.75;;;;;;;;;;5073176;28;20127;-81
2024/01/21 09:38:21;;;;;;;3.17;2.15;;;;;;;;;;5061172;28;20116;-80
2024/01/21 09:41:28;;;;;;;1.23;1.20;;;;;;;;;;5028492;28;20187;-80
2024/01/21 09:43:54;;;;;;;3.95;2.05;;;;;;;;;;5064265;28;20029;-80
2024/01/21 09:46:19;;;;;;;3.47;2.33;;;;;;;;;;5069507;28;20503;-80
2024/01/21 09:48:45;;;;;;;2.20;1.98;;;;;;;;;;5064475;28;20144;-80
2024/01/21 09:51:10;;;;;;;3.63;2.47;;;;;;;;;;5061927;28;20033;-80
2024/01/21 09:53:35;;;;;;;4.72;3.10;;;;;;;;;;5060425;28;20057;-80
2024/01/21 09:56:07;;;;;;;4.57;3.05;;;;;;;;;;5069918;28;20059;-79
2024/01/21 09:58:49;;;;;;;3.15;2.17;;;;;;;;;;5070063;28;20047;-81
2024/01/21 10:01:18;;;;;;;2.67;2.22;;;;;;;;;;5058118;28;20037;-80
2024/01/21 10:03:44;;;;;;;3.75;2.72;;;;;;;;;;5037893;28;20077;-80
2024/01/21 10:06:10;;;;;;;4.82;2.20;;;;;;;;;;5064504;28;20085;-79
2024/01/21 10:08:39;;;;;;;3.40;2.35;;;;;;;;;;5065757;28;20529;-79
2024/01/21 10:11:05;;;;;;;2.28;2.08;;;;;;;;;;5055914;28;20123;-78
2024/01/21 10:13:31;;;;;;;1.83;1.73;;;;;;;;;;5055061;28;20057;-77
2024/01/21 10:15:57;;;;;;;1.80;1.67;;;;;;;;;;5055575;28;20037;-78
2024/01/21 10:18:23;;;;;;;2.00;1.83;;;;;;;;;;5056121;28;20033;-79
2024/01/21 10:20:48;;;;;;;3.03;2.15;;;;;;;;;;5056488;28;20037;-78
2024/01/21 10:23:13;;;;;;;1.65;1.55;;;;;;;;;;5055437;28;20129;-78
2024/01/21 10:25:43;;;;;;;2.00;1.77;;;;;;;;;;5054599;28;20045;-77
2024/01/21 10:28:11;;;;;;;4.15;2.33;;;;;;;;;;5055291;28;20056;-78
2024/01/21 10:30:37;;;;;;;2.15;1.95;;;;;;;;;;5053440;28;20036;-79
2024/01/21 10:33:03;;;;;;;2.60;2.25;;;;;;;;;;5054834;28;20044;-77
2024/01/21 10:35:28;;;;;;;3.50;2.28;;;;;;;;;;5056771;28;20033;-79
2024/01/21 10:37:54;;;;;;;5.57;2.20;;;;;;;;;;5055644;28;20048;-79
2024/01/21 10:40:20;;;;;;;2.55;1.88;;;;;;;;;;5055469;28;20033;-78
2024/01/21 10:42:53;;;;;;;2.00;1.77;;;;;;;;;;5056768;28;20036;-79
2024/01/21 10:45:22;;;;;;;6.90;3.75;;;;;;;;;;5055334;28;20056;-79
2024/01/21 10:47:49;;;;;;;3.22;2.53;;;;;;;;;;5056867;28;20033;-78
2024/01/21 10:50:16;;;;;;;3.85;2.85;;;;;;;;;;5039243;28;20116;-77
2024/01/21 10:52:45;;;;;;;6.72;4.60;;;;;;;;;;5053571;28;20033;-77
2024/01/21 10:55:10;;;;;;;7.50;5.68;;;;;;;;;;5055051;28;20033;-77
2024/01/21 10:57:35;;;;;;;8.80;6.43;;;;;;;;;;5053948;28;20537;-78
2024/01/21 11:00:03;;;;;;;9.38;5.28;;;;;;;;;;5055100;28;20670;-80
2024/01/21 11:02:30;;;;;;;8.35;4.93;;;;;;;;;;5055173;28;20044;-79
2024/01/21 11:04:56;;;;;;;6.15;4.47;;;;;;;;;;5057181;28;20082;-78
2024/01/21 11:07:24;;;;;;;7.03;4.72;;;;;;;;;;5067377;28;20028;-78
2024/01/21 11:09:50;;;;;;;6.93;4.03;;;;;;;;;;5057279;28;20029;-80
2024/01/21 11:12:16;;;;;;;8.40;5.15;;;;;;;;;;5077714;28;20029;-80
2024/01/21 11:14:43;;;;;;;6.20;3.55;;;;;;;;;;5074010;28;20032;-80
2024/01/21 11:17:11;;;;;;;5.40;2.50;;;;;;;;;;5076474;28;20043;-78
2024/01/21 11:19:52;;;;;;;7.50;4.22;;;;;;;;;;5076490;28;20036;-80
2024/01/21 11:22:20;;;;;;;3.85;3.03;;;;;;;;;;5073039;28;20482;-80
2024/01/21 11:24:46;;;;;;;2.83;1.90;;;;;;;;;;5069737;28;20091;-78
2024/01/21 11:27:19;;;;;;;1.83;1.60;;;;;;;;;;5055855;28;20028;-79
2024/01/21 11:29:44;;;;;;;3.20;1.50;;;;;;;;;;5055238;28;20037;-80
2024/01/21 11:32:11;;;;;;;3.00;1.90;;;;;;;;;;5053522;28;20033;-80
2024/01/21 11:34:40;;;;;;;3.35;1.95;;;;;;;;;;5054267;28;20029;-79
2024/01/21 11:37:08;;;;;;;1.92;1.77;;;;;;;;;;5055865;28;20033;-80
2024/01/21 11:39:33;;;;;;;3.28;2.17;;;;;;;;;;5055622;28;20032;-80
2024/01/21 11:42:00;;;;;;;2.53;1.95;;;;;;;;;;5055468;28;20051;-80
2024/01/21 11:44:28;;;;;;;4.85;2.88;;;;;;;;;;5053871;28;20053;-81
2024/01/21 11:46:55;;;;;;;2.58;2.35;;;;;;;;;;5054626;28;20468;-80
2024/01/21 11:49:21;;;;;;;3.13;2.40;;;;;;;;;;5053522;28;20513;-80
2024/01/21 11:51:47;;;;;;;1.98;1.77;;;;;;;;;;5055749;28;20059;-79
2024/01/21 11:54:12;;;;;;;3.13;2.40;;;;;;;;;;5055761;28;20092;-80
2024/01/21 11:56:39;;;;;;;9.00;4.90;;;;;;;;;;5057312;28;20138;-81
2024/01/21 11:59:09;;;;;;;13.82;6.10;;;;;;;;;;5038538;28;20116;-79
2024/01/21 12:01:38;;;;;;;9.30;6.22;;;;;;;;;;5054726;28;20068;-81
2024/01/21 12:04:05;;;;;;;8.82;4.95;;;;;;;;;;5056351;28;20037;-78
2024/01/21 12:06:39;;;;;;;7.63;4.90;;;;;;;;;;5055629;28;20037;-81
2024/01/21 12:09:05;;;;;;;14.02;5.97;;;;;;;;;;5055475;28;20083;-81
2024/01/21 12:11:40;;;;;;;12.60;6.32;;;;;;;;;;5056607;28;20025;-81
2024/01/21 12:14:14;;;;;;;8.93;4.78;;;;;;;;;;5055725;28;20559;-81
2024/01/21 12:16:41;;;;;;;7.55;4.95;;;;;;;;;;5055682;28;20071;-80
2024/01/21 12:19:07;;;;;;;7.22;4.38;;;;;;;;;;5055922;28;20478;-80
2024/01/21 12:21:33;;;;;;;6.85;3.78;;;;;;;;;;5054643;28;20417;-80
2024/01/21 12:24:02;;;;;;;5.53;3.15;;;;;;;;;;5056037;28;20060;-81
2024/01/21 12:26:27;;;;;;;3.20;2.33;;;;;;;;;;5055398;28;20525;-81
2024/01/21 12:29:00;;;;;;;2.67;2.17;;;;;;;;;;5056134;28;20060;-80
2024/01/21 12:31:27;;;;;;;2.63;2.28;;;;;;;;;;5054054;28;20097;-80
2024/01/21 12:33:53;;;;;;;4.63;2.97;;;;;;;;;;5053649;28;20041;-80
2024/01/21 12:36:18;;;;;;;3.75;3.10;;;;;;;;;;5053984;28;20044;-80
2024/01/21 12:38:44;;;;;;;14.75;6.55;;;;;;;;;;5056411;28;20037;-78
2024/01/21 12:41:09;;;;;;;49.88;19.48;;;;;;;;;;5056216;28;20056;-79
2024/01/21 12:43:34;;;;;;;65.53;24.55;;;;;;;;;;5055915;28;20047;-77
2024/01/21 12:46:00;;;;;;;20.77;11.23;;;;;;;;;;5056411;28;20040;-81
2024/01/21 12:48:26;;;;;;;20.02;9.65;;;;;;;;;;5055803;28;20117;-81
2024/01/21 12:50:51;;;;;;;16.60;8.75;;;;;;;;;;5056230;28;20403;-81
2024/01/21 12:53:17;;;;;;;11.52;6.15;;;;;;;;;;5056414;28;20116;-79
2024/01/21 12:55:42;;;;;;;11.07;5.50;;;;;;;;;;5055547;28;20394;-81
2024/01/21 12:58:10;;;;;;;7.03;3.50;;;;;;;;;;5055006;28;20514;-81
2024/01/21 13:00:35;;;;;;;4.13;3.03;;;;;;;;;;5055115;28;20033;-81
2024/01/21 13:03:01;;;;;;;3.15;2.30;;;;;;;;;;5054768;28;20040;-79
2024/01/21 13:05:26;;;;;;;3.42;2.30;;;;;;;;;;5054477;28;20040;-81
2024/01/21 13:07:53;;;;;;;3.70;2.22;;;;;;;;;;5055771;28;20060;-80
2024/01/21 13:10:19;;;;;;;3.13;2.30;;;;;;;;;;5037986;28;20110;-79
2024/01/21 13:12:44;;;;;;;3.05;2.42;;;;;;;;;;5026916;28;20047;-81
2024/01/21 13:15:10;;;;;;;5.07;2.30;;;;;;;;;;4967997;28;20077;-80
2024/01/21 13:17:35;;;;;;;2.83;1.70;;;;;;;;;;5075928;28;20485;-82
2024/01/21 13:20:00;;;;;;;5.75;1.83;;;;;;;;;;5065968;28;20033;-81
2024/01/21 13:22:26;;;;;;;3.60;2.13;;;;;;;;;;5065266;28;20029;-80
2024/01/21 13:24:51;;;;;;;3.33;2.67;;;;;;;;;;5069197;28;20029;-81
2024/01/21 13:27:26;;;;;;;2.30;2.08;;;;;;;;;;5062298;28;20528;-81
2024/01/21 13:32:36;;;;;;;2.75;1.77;;;;;;;;;;5061354;28;20037;-77
2024/01/21 13:35:02;;;;;;;1.55;1.30;;;;;;;;;;5026033;28;20130;-77
2024/01/21 13:37:28;;;;;;;2.20;2.00;;;;;;;;;;5052376;28;20041;-77
2024/01/21 13:39:53;;;;;;;1.67;1.45;;;;;;;;;;5060742;28;20166;-78
2024/01/21 13:42:18;;;;;;;2.00;1.38;;;;;;;;;;5034742;28;20025;-76
2024/01/21 13:44:44;;;;;;;1.95;1.42;;;;;;;;;;5043091;28;20036;-77
2024/01/21 13:47:09;;;;;;;1.50;1.40;;;;;;;;;;5061934;28;20048;-78
2024/01/21 13:49:35;;;;;;;1.38;1.27;;;;;;;;;;5051765;28;20051;-77
2024/01/21 13:52:01;;;;;;;1.88;1.42;;;;;;;;;;5054590;28;20501;-77
2024/01/21 13:54:27;;;;;;;1.40;1.30;;;;;;;;;;5053438;28;20116;-81
2024/01/21 13:56:53;;;;;;;1.88;1.52;;;;;;;;;;5066030;28;20516;-81
2024/01/21 13:59:18;;;;;;;2.83;2.00;;;;;;;;;;5059952;28;20056;-82
2024/01/21 14:01:43;;;;;;;4.95;2.85;;;;;;;;;;5062272;28;20045;-81
2024/01/21 14:04:09;;;;;;;2.22;1.85;;;;;;;;;;5068451;28;20035;-80
2024/01/21 14:06:34;;;;;;;3.65;2.20;;;;;;;;;;5064013;28;20433;-80
2024/01/21 14:08:59;;;;;;;4.20;2.00;;;;;;;;;;5072912;28;20151;-83
2024/01/21 14:11:25;;;;;;;3.08;2.17;;;;;;;;;;5078958;28;20028;-83
2024/01/21 14:13:50;;;;;;;1.58;1.48;;;;;;;;;;5066929;28;20041;-81
2024/01/21 14:16:17;;;;;;;2.05;1.73;;;;;;;;;;5077664;28;20114;-82
2024/01/21 14:18:43;;;;;;;1.88;1.73;;;;;;;;;;5076609;28;20128;-80
2024/01/21 14:21:08;;;;;;;2.83;1.98;;;;;;;;;;5069157;28;20517;-82
2024/01/21 14:23:33;;;;;;;2.40;2.20;;;;;;;;;;5061185;28;20037;-81
2024/01/21 14:26:06;;;;;;;2.25;1.65;;;;;;;;;;5067711;28;20036;-81
2024/01/21 14:28:32;;;;;;;4.28;1.95;;;;;;;;;;5076910;28;20098;-83
2024/01/21 14:30:58;;;;;;;3.95;1.90;;;;;;;;;;5067229;28;20026;-82
2024/01/21 14:33:24;;;;;;;2.53;1.83;;;;;;;;;;5069715;28;20045;-84
2024/01/21 14:35:49;;;;;;;9.45;4.63;;;;;;;;;;5068248;28;20052;-81